Data for 12/11/2010

Time Sea-Level Adjusted Pressure Absolute Pressure Temperature Relative Humidity Dew Point   
(mb) (inHg) (mb) (inHg) (C) (F) (%) (C) (F)
00:05 1019 30.09 849 25.07 -1.6 29.1 54 -9.9 14.2
00:10 1020 30.12 849 25.07 -1.6 29.1 51 -10.5 13.1
00:15 1020 30.12 849 25.07 -1.6 29.2 50 -10.8 12.6
00:20 1020 30.12 849 25.07 -1.6 29.1 51 -10.4 13.3
00:25 1020 30.12 849 25.07 -1.7 28.9 52 -10.3 13.5
00:30 1020 30.12 849 25.07 -1.8 28.8 51 -10.5 13.1
00:35 1020 30.12 849 25.07 -1.9 28.6 50 -10.9 12.4
00:40 1020 30.12 849 25.07 -2 28.4 50 -11 12.3
00:45 1020 30.12 849 25.07 -2 28.5 50 -11 12.3
00:50 1020 30.12 849 25.07 -2 28.4 51 -10.7 12.7
00:55 1020 30.12 849 25.07 -2.1 28.2 52 -10.8 12.6
01:00 1020 30.12 849 25.07 -2.2 28 52 -10.9 12.3
01:05 1020 30.12 849 25.07 -2.2 28.1 51 -10.9 12.3
01:10 1020 30.12 849 25.07 -2.1 28.3 50 -11.1 12
01:15 1020 30.12 849 25.07 -1.9 28.6 51 -10.6 12.9
01:20 1020 30.12 849 25.07 -1.9 28.6 51 -10.8 12.6
01:25 1020 30.12 849 25.07 -1.9 28.6 49 -11.2 11.9
01:30 1020 30.12 850 25.1 -1.9 28.6 50 -11.1 12
01:35 1020 30.12 850 25.1 -1.8 28.7 48 -11.5 11.4
01:40 1021 30.15 850 25.1 -1.8 28.7 49 -11.3 11.7
01:45 1021 30.15 850 25.1 -1.9 28.6 49 -11.2 11.9
01:50 1021 30.15 850 25.1 -2.1 28.3 52 -10.7 12.7
01:55 1021 30.15 850 25.1 -2.1 28.2 50 -11.2 11.8
02:00 1021 30.15 850 25.1 -2.3 27.9 50 -11.3 11.6
02:05 1021 30.15 850 25.1 -2.4 27.7 52 -11 12.1
02:10 1021 30.15 850 25.1 -2.4 27.7 52 -10.9 12.3
02:15 1021 30.15 850 25.1 -2.2 28 49 -11.5 11.3
02:20 1021 30.15 850 25.1 -2 28.4 50 -11.1 11.9
02:25 1021 30.15 850 25.1 -1.9 28.6 49 -11.2 11.8
02:30 1021 30.15 850 25.1 -1.7 28.9 49 -11.2 11.9
02:35 1021 30.15 850 25.1 -1.7 29 49 -11.1 12.1
02:40 1021 30.15 850 25.1 -1.6 29.1 49 -11.1 12.1
02:45 1021 30.15 850 25.1 -1.7 29 50 -10.8 12.6
02:50 1021 30.15 851 25.13 -1.7 28.9 50 -10.8 12.6
02:55 1021 30.15 851 25.13 -1.8 28.8 50 -10.9 12.3
03:00 1021 30.15 850 25.1 -1.8 28.8 53 -10.2 13.7
03:05 1021 30.15 851 25.13 -1.9 28.5 53 -10.2 13.7
03:10 1021 30.15 851 25.13 -2 28.4 51 -10.9 12.3
03:15 1022 30.18 851 25.13 -2 28.4 55 -10 14
03:20 1022 30.18 851 25.13 -2.2 28 55 -10.2 13.6
03:25 1022 30.18 851 25.13 -2.6 27.3 57 -10 14.1
03:30 1022 30.18 851 25.13 -2.8 27 55 -10.6 13
03:35 1022 30.18 851 25.13 -2.8 26.9 54 -11 12.2
03:40 1022 30.18 851 25.13 -2.7 27.2 53 -11 12.3
03:45 1022 30.18 851 25.13 -2.6 27.3 53 -11 12.2
03:50 1022 30.18 851 25.13 -2.6 27.3 53 -11 12.2
03:55 1022 30.18 851 25.13 -2.7 27.2 53 -10.9 12.4
04:00 1022 30.18 851 25.13 -2.7 27.1 56 -10.4 13.4
04:05 1022 30.18 851 25.13 -2.8 27 55 -10.7 12.8
04:10 1022 30.18 851 25.13 -2.7 27.1 53 -11 12.2
04:15 1022 30.18 851 25.13 -2.7 27.1 54 -10.8 12.5
04:20 1022 30.18 851 25.13 -2.8 27.1 54 -10.8 12.6
04:25 1022 30.18 851 25.13 -2.9 26.9 55 -10.7 12.7
04:30 1022 30.18 851 25.13 -3.1 26.4 56 -10.7 12.8
04:35 1022 30.18 851 25.13 -3.3 26.1 56 -10.9 12.4
04:40 1022 30.18 851 25.13 -3.3 26 57 -10.8 12.6
04:45 1022 30.18 851 25.13 -3.4 25.8 58 -10.6 12.9
04:50 1022 30.18 851 25.13 -3.7 25.3 59 -10.5 13.1
04:55 1022 30.18 851 25.13 -4 24.9 59 -10.9 12.4
05:00 1022 30.18 851 25.13 -3.8 25.2 58 -11 12.2
05:05 1022 30.18 851 25.13 -3.3 26.1 55 -11.1 12.1
05:10 1022 30.18 851 25.13 -3 26.6 55 -10.8 12.5
05:15 1022 30.18 851 25.13 -3.3 26 56 -10.8 12.5
05:20 1022 30.18 851 25.13 -3.4 25.8 57 -10.7 12.7
05:25 1022 30.18 852 25.16 -3.2 26.3 56 -10.8 12.6
05:30 1022 30.18 852 25.16 -2.9 26.8 55 -10.7 12.8
05:35 1023 30.21 852 25.16 -2.9 26.7 55 -10.7 12.8
05:40 1023 30.21 852 25.16 -3.2 26.2 56 -10.7 12.7
05:45 1022 30.18 852 25.16 -3.6 25.6 58 -10.7 12.7
05:50 1022 30.18 852 25.16 -3.9 24.9 59 -10.9 12.4
05:55 1023 30.21 852 25.16 -4.2 24.4 60 -10.9 12.4
06:00 1023 30.21 852 25.16 -4.5 23.9 62 -10.8 12.5
06:05 1023 30.21 852 25.16 -4.7 23.6 62 -10.8 12.5
06:10 1023 30.21 852 25.16 -4.6 23.8 62 -10.8 12.6
06:15 1023 30.21 852 25.16 -4.5 23.9 62 -10.7 12.7
06:20 1023 30.21 852 25.16 -4.2 24.5 60 -10.8 12.6
06:25 1023 30.21 852 25.16 -4 24.8 60 -10.6 12.9
06:30 1023 30.21 852 25.16 -3.9 25 60 -10.5 13.1
06:35 1023 30.21 852 25.16 -3.9 25.1 60 -10.5 13.1
06:40 1023 30.21 852 25.16 -4 24.7 62 -10.4 13.3
06:45 1023 30.21 852 25.16 -4.4 24.1 63 -10.5 13.1
06:50 1023 30.21 852 25.16 -4.4 24 63 -10.5 13.2
06:55 1023 30.21 852 25.16 -4.3 24.3 62 -10.5 13
07:00 1023 30.21 852 25.16 -4 24.8 61 -10.6 13
07:05 1023 30.21 852 25.16 -3.8 25.1 61 -10.4 13.3
07:10 1023 30.21 852 25.16 -3.7 25.3 59 -10.6 13
07:15 1023 30.21 852 25.16 -3.5 25.6 59 -10.5 13
07:20 1023 30.21 852 25.16 -3.4 25.8 60 -10.2 13.7
07:25 1023 30.21 852 25.16 -3.8 25.1 63 -9.9 14.1
07:30 1023 30.21 852 25.16 -4.7 23.6 66 -10.2 13.6
07:35 1023 30.21 853 25.19 -5.1 22.8 66 -10.4 13.2
07:40 1023 30.21 853 25.19 -5 22.9 66 -10.5 13.2
07:45 1023 30.21 853 25.19 -4.6 23.6 63 -10.6 13
07:50 1023 30.21 853 25.19 -4.2 24.5 62 -10.3 13.4
07:55 1023 30.21 853 25.19 -4.2 24.4 63 -10.2 13.7
08:00 1024 30.24 853 25.19 -4.4 24.2 65 -10.1 13.9
08:05 1024 30.24 853 25.19 -4.5 23.8 65 -10.2 13.7
08:10 1024 30.24 853 25.19 -4.3 24.2 63 -10.2 13.6
08:15 1024 30.24 853 25.19 -4.1 24.7 62 -10.2 13.6
08:20 1024 30.24 853 25.19 -3.8 25.1 62 -10.2 13.7
08:25 1024 30.24 853 25.19 -3.6 25.5 60 -10.4 13.3
08:30 1024 30.24 853 25.19 -3.4 25.9 59 -10.2 13.6
08:35 1024 30.24 853 25.19 -3.3 26 59 -10.3 13.5
08:40 1024 30.24 853 25.19 -3.2 26.2 60 -10 14
08:45 1024 30.24 853 25.19 -3.1 26.4 60 -9.8 14.3
08:50 1024 30.24 853 25.19 -3.1 26.5 59 -10 14.1
08:55 1024 30.24 853 25.19 -2.9 26.7 59 -9.8 14.4
09:00 1024 30.24 854 25.22 -2.9 26.9 58 -10 14
09:05 1024 30.24 853 25.19 -2.8 27 57 -10.1 13.9
09:10 1024 30.24 854 25.22 -2.7 27.1 57 -10 14
09:15 1024 30.24 854 25.22 -2.4 27.6 58 -9.7 14.5
09:20 1024 30.24 854 25.22 -2.2 28 57 -9.6 14.7
09:25 1024 30.24 854 25.22 -2.1 28.2 57 -9.6 14.7
09:30 1024 30.24 854 25.22 -1.9 28.5 56 -9.6 14.8
09:35 1024 30.24 854 25.22 -1.8 28.8 54 -9.8 14.3
09:40 1025 30.27 854 25.22 -1.6 29.1 57 -9.1 15.5
09:45 1025 30.27 854 25.22 -1.5 29.3 56 -9.2 15.4
09:50 1025 30.27 854 25.22 -1.5 29.3 55 -9.5 15
09:55 1025 30.27 854 25.22 -1.8 28.8 57 -9.3 15.2
10:00 1025 30.27 854 25.22 -2 28.4 56 -9.6 14.8
10:05 1025 30.27 854 25.22 -1.8 28.8 54 -10 14.1
10:10 1025 30.27 854 25.22 -1.5 29.3 55 -9.5 14.9
10:15 1025 30.27 854 25.22 -1.9 28.5 56 -9.7 14.6
10:20 1025 30.27 854 25.22 -1.9 28.6 55 -9.8 14.4
10:25 1025 30.27 854 25.22 -1.5 29.3 53 -9.8 14.3
10:30 1025 30.27 854 25.22 -1.2 29.9 53 -9.5 14.9
10:35 1025 30.27 854 25.22 -0.9 30.4 52 -9.6 14.7
10:40 1025 30.27 854 25.22 -0.6 31 52 -9.4 15.1
10:45 1025 30.27 854 25.22 -0.4 31.3 51 -9.3 15.3
10:50 1025 30.27 854 25.22 -0.4 31.3 51 -9.2 15.4
10:55 1025 30.27 854 25.22 -0.3 31.5 51 -9.3 15.3
11:00 1025 30.27 854 25.22 0.3 32.5 48 -9.5 14.8
11:05 1025 30.27 854 25.22 0.7 33.3 46 -9.6 14.7
11:10 1025 30.27 854 25.22 1.1 33.9 46 -9.3 15.3
11:15 1025 30.27 854 25.22 1.1 33.9 45 -9.4 15
11:20 1025 30.27 854 25.22 1.4 34.5 43 -9.8 14.3
11:25 1025 30.27 854 25.22 1.7 35 43 -9.6 14.8
11:30 1025 30.27 854 25.22 1.7 35 42 -9.8 14.4
11:35 1025 30.27 854 25.22 1.4 34.6 43 -9.9 14.3
11:40 1024 30.24 854 25.22 2.1 35.8 40 -10.3 13.5
11:45 1024 30.24 854 25.22 1.9 35.4 43 -9.5 14.9
11:50 1024 30.24 853 25.19 1.5 34.8 41 -10.3 13.5
11:55 1024 30.24 853 25.19 1.8 35.3 41 -10.2 13.7
12:00 1024 30.24 853 25.19 1.3 34.4 43 -10 14
12:05 1024 30.24 853 25.19 2 35.5 40 -10.2 13.6
12:10 1024 30.24 853 25.19 2.4 36.3 39 -10.3 13.4
12:15 1024 30.24 853 25.19 2.7 36.9 38 -10.1 13.9
12:20 1024 30.24 853 25.19 1.6 34.9 42 -9.9 14.2
12:25 1024 30.24 853 25.19 1.6 34.9 40 -10.5 13
12:30 1024 30.24 853 25.19 1.4 34.5 42 -10 13.9
12:35 1024 30.24 853 25.19 1.6 34.8 43 -9.8 14.4
12:40 1024 30.24 853 25.19 0.9 33.6 43 -10.4 13.2
12:45 1024 30.24 853 25.19 2.1 35.8 41 -9.9 14.2
12:50 1024 30.24 853 25.19 0.6 33.2 45 -10 14
12:55 1024 30.24 853 25.19 1.1 34 43 -10.2 13.6
13:00 1024 30.24 853 25.19 0.7 33.3 45 -10 14
13:05 1024 30.24 853 25.19 0.1 32.2 46 -10.2 13.6
13:10 1024 30.24 853 25.19 0.9 33.6 44 -10.1 13.7
13:15 1024 30.24 853 25.19 0.9 33.7 42 -10.7 12.8
13:20 1024 30.24 853 25.19 1.3 34.4 42 -10.2 13.6
13:25 1024 30.24 853 25.19 1.6 34.9 40 -10.6 12.9
13:30 1024 30.24 853 25.19 2.2 35.9 37 -11.1 12
13:35 1024 30.24 853 25.19 2.7 36.9 36 -10.9 12.5
13:40 1023 30.21 853 25.19 3.2 37.7 34 -11.4 11.4
13:45 1023 30.21 853 25.19 2.1 35.8 37 -11.1 12
13:50 1023 30.21 853 25.19 2.1 35.8 40 -10.2 13.6
13:55 1023 30.21 853 25.19 2.1 35.7 37 -11.3 11.6
14:00 1023 30.21 853 25.19 2.1 35.7 39 -10.6 12.9
14:05 1023 30.21 853 25.19 1.6 34.9 38 -11.2 11.8
14:10 1023 30.21 852 25.16 1.6 34.8 39 -11 12.2
14:15 1023 30.21 853 25.19 1.3 34.3 38 -11.5 11.4
14:20 1024 30.24 853 25.19 1.7 35 38 -11.3 11.7
14:25 1024 30.24 853 25.19 2.1 35.7 37 -11.1 11.9
14:30 1023 30.21 853 25.19 1.5 34.7 38 -11.4 11.4
14:35 1023 30.21 853 25.19 1.3 34.3 41 -10.7 12.8
14:40 1023 30.21 852 25.16 1 33.8 40 -11.1 12.1
14:45 1023 30.21 853 25.19 1.2 34.2 39 -11.1 11.9
14:50 1023 30.21 853 25.19 1.3 34.4 40 -10.9 12.4
14:55 1023 30.21 853 25.19 1.4 34.5 40 -10.7 12.7
15:00 1023 30.21 853 25.19 1.5 34.7 39 -11.1 12.1
15:05 1023 30.21 853 25.19 1.5 34.8 40 -10.7 12.7
15:10 1024 30.24 853 25.19 1.4 34.4 40 -10.7 12.8
15:15 1024 30.24 853 25.19 1.2 34.2 41 -10.7 12.8
15:20 1024 30.24 853 25.19 0.3 32.6 48 -9.4 15.1
15:25 1024 30.24 853 25.19 -1 30.2 50 -10.2 13.6
15:30 1024 30.24 853 25.19 -1.2 29.9 49 -10.5 13.1
15:35 1024 30.24 853 25.19 -1 30.2 50 -10.2 13.7
15:40 1024 30.24 853 25.19 -0.7 30.7 49 -10.1 13.8
15:45 1024 30.24 853 25.19 -1.4 29.5 52 -10 13.9
15:50 1024 30.24 853 25.19 -1.3 29.6 50 -10.4 13.3
15:55 1024 30.24 853 25.19 -1.4 29.5 52 -10.1 13.8
16:00 1024 30.24 853 25.19 -1.3 29.7 51 -10.2 13.7
16:05 1024 30.24 853 25.19 -1.2 29.9 50 -10.3 13.4
16:10 1024 30.24 853 25.19 -1.2 29.8 50 -10.4 13.3
16:15 1024 30.24 853 25.19 -1 30.2 50 -10.2 13.6
16:20 1023 30.21 853 25.19 -1 30.2 49 -10.3 13.4
16:25 1023 30.21 853 25.19 -1.1 29.9 52 -9.8 14.3
16:30 1023 30.21 853 25.19 -1.2 29.9 50 -10.3 13.4
16:35 1023 30.21 853 25.19 -1 30.3 51 -9.8 14.4
16:40 1023 30.21 853 25.19 -0.9 30.4 49 -10.3 13.5
16:45 1023 30.21 853 25.19 -1.2 29.8 52 -9.8 14.4
16:50 1023 30.21 853 25.19 -1.5 29.4 53 -9.9 14.2
16:55 1024 30.24 853 25.19 -1.6 29.2 52 -10.3 13.4
17:00 1024 30.24 853 25.19 -1.5 29.3 54 -9.7 14.6
17:05 1023 30.21 853 25.19 -1.5 29.3 53 -9.9 14.1
17:10 1023 30.21 853 25.19 -1.6 29.1 54 -9.6 14.6
17:15 1023 30.21 852 25.16 -1.7 29 55 -9.5 14.9
17:20 1023 30.21 853 25.19 -1.9 28.7 54 -9.9 14.2
17:25 1023 30.21 852 25.16 -1.9 28.5 56 -9.6 14.8
17:30 1023 30.21 852 25.16 -2.1 28.2 58 -9.3 15.3
17:35 1023 30.21 852 25.16 -2.2 28 58 -9.3 15.2
17:40 1023 30.21 852 25.16 -2.4 27.7 59 -9.4 15
17:45 1023 30.21 852 25.16 -2.5 27.4 60 -9.3 15.2
17:50 1023 30.21 852 25.16 -2.6 27.4 59 -9.6 14.8
17:55 1023 30.21 852 25.16 -2.4 27.6 60 -9.2 15.5
18:00 1023 30.21 852 25.16 -2.5 27.5 61 -9.1 15.6
18:05 1023 30.21 852 25.16 -2.5 27.5 58 -9.6 14.7
18:10 1023 30.21 852 25.16 -2.7 27.2 60 -9.3 15.2
18:15 1022 30.18 852 25.16 -2.7 27.2 62 -9 15.8
18:20 1022 30.18 852 25.16 -2.8 27 62 -9.1 15.7
18:25 1022 30.18 852 25.16 -2.8 27 61 -9.4 15.1
18:30 1022 30.18 852 25.16 -2.8 27 59 -9.7 14.5
18:35 1022 30.18 852 25.16 -2.6 27.3 58 -9.7 14.6
18:40 1022 30.18 852 25.16 -2.6 27.4 59 -9.6 14.7
18:45 1022 30.18 852 25.16 -2.5 27.5 58 -9.7 14.5
18:50 1022 30.18 852 25.16 -2.4 27.7 57 -9.7 14.6
18:55 1022 30.18 851 25.13 -2.4 27.7 59 -9.4 15.1
19:00 1022 30.18 852 25.16 -2.3 27.8 57 -9.6 14.7
19:05 1023 30.21 852 25.16 -2.3 27.9 55 -10 14
19:10 1023 30.21 852 25.16 -2.1 28.1 55 -9.9 14.2
19:15 1023 30.21 852 25.16 -2 28.3 54 -10 13.9
19:20 1023 30.21 852 25.16 -2 28.5 53 -10.2 13.7
19:25 1022 30.18 852 25.16 -1.9 28.6 54 -9.9 14.2
19:30 1022 30.18 852 25.16 -2 28.4 57 -9.3 15.2
19:35 1023 30.21 852 25.16 -2.2 28 58 -9.5 14.9
19:40 1022 30.18 852 25.16 -2.4 27.6 58 -9.6 14.8
19:45 1022 30.18 852 25.16 -2.6 27.3 57 -10 14
19:50 1022 30.18 852 25.16 -2.5 27.6 57 -9.8 14.3
19:55 1022 30.18 852 25.16 -2.4 27.7 57 -9.8 14.3
20:00 1023 30.21 852 25.16 -2.2 28 55 -10.1 13.8
20:05 1023 30.21 852 25.16 -1.9 28.6 53 -10.3 13.5
20:10 1023 30.21 852 25.16 -1.6 29.1 56 -9.4 15.1
20:15 1023 30.21 852 25.16 -2.4 27.6 62 -8.8 16.1
20:20 1023 30.21 852 25.16 -3 26.7 62 -9.2 15.4
20:25 1023 30.21 852 25.16 -2.6 27.3 61 -9.1 15.6
20:30 1023 30.21 852 25.16 -2.4 27.7 61 -8.9 16
20:35 1023 30.21 852 25.16 -2.5 27.6 62 -8.8 16.2
20:40 1023 30.21 852 25.16 -2.6 27.4 62 -8.9 16
20:45 1023 30.21 852 25.16 -2.6 27.3 64 -8.5 16.7
20:50 1023 30.21 852 25.16 -2.7 27.1 65 -8.4 16.9
20:55 1023 30.21 852 25.16 -2.7 27.1 66 -8.3 17.1
21:00 1023 30.21 852 25.16 -2.9 26.9 67 -8.1 17.5
21:05 1023 30.21 852 25.16 -3 26.7 67 -8.2 17.2
21:10 1023 30.21 852 25.16 -3.1 26.4 69 -8.1 17.4
21:15 1023 30.21 852 25.16 -3.2 26.3 66 -8.7 16.4
21:20 1023 30.21 852 25.16 -3.2 26.2 66 -8.7 16.3
21:25 1023 30.21 852 25.16 -3.2 26.3 65 -8.9 16
21:30 1023 30.21 852 25.16 -3.1 26.4 63 -9.2 15.4
21:35 1023 30.21 852 25.16 -2.9 26.8 63 -8.9 16
21:40 1023 30.21 852 25.16 -2.9 26.8 62 -9.2 15.5
21:45 1023 30.21 852 25.16 -2.8 27 62 -9.1 15.7
21:50 1022 30.18 852 25.16 -2.8 27 61 -9.3 15.3
21:55 1022 30.18 852 25.16 -2.7 27.2 61 -9.1 15.6
22:00 1022 30.18 852 25.16 -2.5 27.5 62 -8.9 16
22:05 1022 30.18 852 25.16 -2.7 27.1 62 -9 15.9
22:10 1022 30.18 851 25.13 -2.8 26.9 63 -9 15.8
22:15 1022 30.18 851 25.13 -2.9 26.8 63 -9 15.8
22:20 1022 30.18 851 25.13 -2.9 26.7 63 -9.1 15.6
22:25 1022 30.18 851 25.13 -2.8 27 63 -9 15.9
22:30 1022 30.18 851 25.13 -2.7 27.2 65 -8.5 16.7
22:35 1022 30.18 851 25.13 -2.8 27 66 -8.3 17
22:40 1022 30.18 851 25.13 -2.8 26.9 67 -8.2 17.3
22:45 1022 30.18 851 25.13 -2.9 26.8 64 -8.8 16.1
22:50 1022 30.18 851 25.13 -2.9 26.9 64 -8.7 16.4
22:55 1022 30.18 851 25.13 -2.9 26.9 68 -8 17.6
23:00 1022 30.18 851 25.13 -3 26.6 65 -8.6 16.5
23:05 1022 30.18 851 25.13 -3.1 26.5 66 -8.5 16.7
23:10 1022 30.18 851 25.13 -3.1 26.4 67 -8.5 16.7
23:15 1021 30.15 851 25.13 -3.1 26.3 67 -8.5 16.7
23:20 1021 30.15 851 25.13 -3.2 26.2 67 -8.5 16.6
23:25 1022 30.18 851 25.13 -3.2 26.3 68 -8.4 17
23:30 1022 30.18 851 25.13 -3.2 26.3 67 -8.4 16.8
23:35 1021 30.15 851 25.13 -3.2 26.2 66 -8.6 16.5
23:40 1022 30.18 851 25.13 -3.2 26.3 67 -8.5 16.7
23:45 1022 30.18 851 25.13 -3 26.6 68 -8.1 17.5
23:50 1022 30.18 851 25.13 -2.9 26.9 70 -7.6 18.3
23:55 1022 30.18 851 25.13 -2.8 27 67 -8 17.5